sensor_id;sensor_type;location;lat;lon;timestamp;P1;durP1;ratioP1;P2;durP2;ratioP2
5929;SDS011;2990;48.746;9.236;2022-12-20T00:02:18;15.43;;;15.23;;
5929;SDS011;2990;48.746;9.236;2022-12-20T00:04:44;15.23;;;15.02;;
5929;SDS011;2990;48.746;9.236;2022-12-20T00:07:10;17.13;;;16.88;;
5929;SDS011;2990;48.746;9.236;2022-12-20T00:09:35;16.40;;;16.20;;
5929;SDS011;2990;48.746;9.236;2022-12-20T00:12:01;19.17;;;18.67;;
5929;SDS011;2990;48.746;9.236;2022-12-20T00:14:27;16.77;;;16.42;;
5929;SDS011;2990;48.746;9.236;2022-12-20T00:16:52;20.25;;;19.83;;
5929;SDS011;2990;48.746;9.236;2022-12-20T00:19:18;20.00;;;19.55;;
5929;SDS011;2990;48.746;9.236;2022-12-20T00:21:43;20.85;;;20.10;;
5929;SDS011;2990;48.746;9.236;2022-12-20T00:24:09;20.33;;;19.83;;
5929;SDS011;2990;48.746;9.236;2022-12-20T00:26:35;19.77;;;19.40;;
5929;SDS011;2990;48.746;9.236;2022-12-20T00:29:02;19.20;;;18.65;;
5929;SDS011;2990;48.746;9.236;2022-12-20T00:31:29;18.30;;;17.88;;
5929;SDS011;2990;48.746;9.236;2022-12-20T00:33:56;14.35;;;14.00;;
5929;SDS011;2990;48.746;9.236;2022-12-20T00:36:23;15.27;;;15.07;;
5929;SDS011;2990;48.746;9.236;2022-12-20T00:38:51;15.20;;;14.90;;
5929;SDS011;2990;48.746;9.236;2022-12-20T00:41:19;13.63;;;13.50;;
5929;SDS011;2990;48.746;9.236;2022-12-20T00:43:46;14.40;;;14.27;;
5929;SDS011;2990;48.746;9.236;2022-12-20T00:46:12;16.70;;;16.40;;
5929;SDS011;2990;48.746;9.236;2022-12-20T00:48:39;14.60;;;14.38;;
5929;SDS011;2990;48.746;9.236;2022-12-20T00:51:06;14.13;;;13.93;;
5929;SDS011;2990;48.746;9.236;2022-12-20T00:53:36;12.55;;;12.45;;
5929;SDS011;2990;48.746;9.236;2022-12-20T00:56:03;16.17;;;15.75;;
5929;SDS011;2990;48.746;9.236;2022-12-20T00:58:30;16.42;;;15.77;;
5929;SDS011;2990;48.746;9.236;2022-12-20T01:00:56;16.38;;;16.17;;
5929;SDS011;2990;48.746;9.236;2022-12-20T01:03:22;15.48;;;15.07;;
5929;SDS011;2990;48.746;9.236;2022-12-20T01:05:51;19.50;;;18.90;;
5929;SDS011;2990;48.746;9.236;2022-12-20T01:08:17;19.63;;;19.25;;
5929;SDS011;2990;48.746;9.236;2022-12-20T01:10:43;20.13;;;19.65;;
5929;SDS011;2990;48.746;9.236;2022-12-20T01:13:09;20.13;;;19.60;;
5929;SDS011;2990;48.746;9.236;2022-12-20T01:15:35;20.30;;;19.80;;
5929;SDS011;2990;48.746;9.236;2022-12-20T01:18:01;21.38;;;20.80;;
5929;SDS011;2990;48.746;9.236;2022-12-20T01:20:26;20.08;;;19.63;;
5929;SDS011;2990;48.746;9.236;2022-12-20T01:22:52;19.40;;;18.95;;
5929;SDS011;2990;48.746;9.236;2022-12-20T01:25:17;21.13;;;20.48;;
5929;SDS011;2990;48.746;9.236;2022-12-20T01:27:43;19.60;;;19.17;;
5929;SDS011;2990;48.746;9.236;2022-12-20T01:30:09;20.42;;;19.98;;
5929;SDS011;2990;48.746;9.236;2022-12-20T01:32:35;19.50;;;18.95;;
5929;SDS011;2990;48.746;9.236;2022-12-20T01:35:01;23.70;;;23.00;;
5929;SDS011;2990;48.746;9.236;2022-12-20T01:37:27;21.67;;;21.15;;
5929;SDS011;2990;48.746;9.236;2022-12-20T01:39:52;22.00;;;21.27;;
5929;SDS011;2990;48.746;9.236;2022-12-20T01:42:19;25.20;;;24.40;;
5929;SDS011;2990;48.746;9.236;2022-12-20T01:47:10;18.17;;;17.75;;
5929;SDS011;2990;48.746;9.236;2022-12-20T01:49:41;19.77;;;19.35;;
5929;SDS011;2990;48.746;9.236;2022-12-20T01:52:10;27.25;;;26.42;;
5929;SDS011;2990;48.746;9.236;2022-12-20T01:57:37;25.20;;;24.40;;
5929;SDS011;2990;48.746;9.236;2022-12-20T02:00:08;22.33;;;21.70;;
5929;SDS011;2990;48.746;9.236;2022-12-20T02:02:35;24.67;;;24.02;;
5929;SDS011;2990;48.746;9.236;2022-12-20T02:05:01;25.33;;;24.58;;
5929;SDS011;2990;48.746;9.236;2022-12-20T02:07:27;26.48;;;25.70;;
5929;SDS011;2990;48.746;9.236;2022-12-20T02:09:55;23.33;;;22.63;;
5929;SDS011;2990;48.746;9.236;2022-12-20T02:12:23;19.08;;;18.65;;
5929;SDS011;2990;48.746;9.236;2022-12-20T02:15:12;23.13;;;22.52;;
5929;SDS011;2990;48.746;9.236;2022-12-20T02:17:51;16.98;;;16.60;;
5929;SDS011;2990;48.746;9.236;2022-12-20T02:20:45;20.02;;;19.52;;
5929;SDS011;2990;48.746;9.236;2022-12-20T02:26:46;19.80;;;19.35;;
5929;SDS011;2990;48.746;9.236;2022-12-20T02:29:27;20.45;;;19.92;;
5929;SDS011;2990;48.746;9.236;2022-12-20T02:34:36;26.63;;;25.70;;
5929;SDS011;2990;48.746;9.236;2022-12-20T02:37:03;28.27;;;27.20;;
5929;SDS011;2990;48.746;9.236;2022-12-20T02:39:30;27.38;;;26.58;;
5929;SDS011;2990;48.746;9.236;2022-12-20T02:42:00;24.85;;;24.13;;
5929;SDS011;2990;48.746;9.236;2022-12-20T02:44:29;25.23;;;24.50;;
5929;SDS011;2990;48.746;9.236;2022-12-20T02:47:18;25.67;;;24.98;;
5929;SDS011;2990;48.746;9.236;2022-12-20T02:49:48;25.63;;;24.83;;
5929;SDS011;2990;48.746;9.236;2022-12-20T02:52:15;26.65;;;25.90;;
5929;SDS011;2990;48.746;9.236;2022-12-20T02:54:44;24.92;;;24.20;;
5929;SDS011;2990;48.746;9.236;2022-12-20T02:57:11;29.50;;;28.60;;
5929;SDS011;2990;48.746;9.236;2022-12-20T02:59:56;28.08;;;27.25;;
5929;SDS011;2990;48.746;9.236;2022-12-20T03:02:29;29.10;;;28.17;;
5929;SDS011;2990;48.746;9.236;2022-12-20T03:05:19;32.70;;;31.65;;
5929;SDS011;2990;48.746;9.236;2022-12-20T03:07:47;44.75;;;43.08;;
5929;SDS011;2990;48.746;9.236;2022-12-20T03:10:13;46.45;;;44.67;;
5929;SDS011;2990;48.746;9.236;2022-12-20T03:12:40;53.40;;;51.00;;
5929;SDS011;2990;48.746;9.236;2022-12-20T03:15:06;53.15;;;51.08;;
5929;SDS011;2990;48.746;9.236;2022-12-20T03:17:32;72.90;;;69.78;;
5929;SDS011;2990;48.746;9.236;2022-12-20T03:19:57;53.08;;;50.95;;
5929;SDS011;2990;48.746;9.236;2022-12-20T03:22:23;58.00;;;55.70;;
5929;SDS011;2990;48.746;9.236;2022-12-20T03:24:48;49.35;;;47.42;;
5929;SDS011;2990;48.746;9.236;2022-12-20T03:27:14;59.33;;;56.92;;
5929;SDS011;2990;48.746;9.236;2022-12-20T03:29:40;58.03;;;55.67;;
5929;SDS011;2990;48.746;9.236;2022-12-20T03:32:06;47.28;;;45.45;;
5929;SDS011;2990;48.746;9.236;2022-12-20T03:34:31;48.90;;;46.97;;
5929;SDS011;2990;48.746;9.236;2022-12-20T03:36:57;56.80;;;54.53;;
5929;SDS011;2990;48.746;9.236;2022-12-20T03:39:23;46.50;;;44.70;;
5929;SDS011;2990;48.746;9.236;2022-12-20T03:41:48;48.50;;;46.60;;
5929;SDS011;2990;48.746;9.236;2022-12-20T03:44:14;38.80;;;37.42;;
5929;SDS011;2990;48.746;9.236;2022-12-20T03:46:39;40.97;;;39.47;;
5929;SDS011;2990;48.746;9.236;2022-12-20T03:49:05;40.47;;;39.03;;
5929;SDS011;2990;48.746;9.236;2022-12-20T03:51:30;37.72;;;36.38;;
5929;SDS011;2990;48.746;9.236;2022-12-20T03:53:56;33.45;;;32.33;;
5929;SDS011;2990;48.746;9.236;2022-12-20T03:56:22;30.40;;;29.42;;
5929;SDS011;2990;48.746;9.236;2022-12-20T03:58:48;29.20;;;28.33;;
5929;SDS011;2990;48.746;9.236;2022-12-20T04:01:18;26.08;;;25.38;;
5929;SDS011;2990;48.746;9.236;2022-12-20T04:03:46;21.33;;;20.70;;
5929;SDS011;2990;48.746;9.236;2022-12-20T04:06:11;18.42;;;18.13;;
5929;SDS011;2990;48.746;9.236;2022-12-20T04:08:37;23.77;;;23.17;;
5929;SDS011;2990;48.746;9.236;2022-12-20T04:11:02;20.90;;;20.35;;
5929;SDS011;2990;48.746;9.236;2022-12-20T04:13:41;20.38;;;19.92;;
5929;SDS011;2990;48.746;9.236;2022-12-20T04:16:18;23.23;;;22.42;;
5929;SDS011;2990;48.746;9.236;2022-12-20T04:18:45;25.83;;;25.10;;
5929;SDS011;2990;48.746;9.236;2022-12-20T04:21:11;30.83;;;29.75;;
5929;SDS011;2990;48.746;9.236;2022-12-20T04:23:37;24.40;;;23.70;;
5929;SDS011;2990;48.746;9.236;2022-12-20T04:26:05;31.10;;;30.10;;
5929;SDS011;2990;48.746;9.236;2022-12-20T04:28:32;28.90;;;28.05;;
5929;SDS011;2990;48.746;9.236;2022-12-20T04:30:58;29.35;;;28.45;;
5929;SDS011;2990;48.746;9.236;2022-12-20T04:33:24;33.28;;;32.13;;
5929;SDS011;2990;48.746;9.236;2022-12-20T04:35:50;28.00;;;27.17;;
5929;SDS011;2990;48.746;9.236;2022-12-20T04:38:16;32.83;;;31.75;;
5929;SDS011;2990;48.746;9.236;2022-12-20T04:40:43;36.67;;;35.25;;
5929;SDS011;2990;48.746;9.236;2022-12-20T04:43:08;34.38;;;33.22;;
5929;SDS011;2990;48.746;9.236;2022-12-20T04:45:34;39.90;;;38.53;;
5929;SDS011;2990;48.746;9.236;2022-12-20T04:48:00;28.98;;;28.13;;
5929;SDS011;2990;48.746;9.236;2022-12-20T04:50:26;31.75;;;30.73;;
5929;SDS011;2990;48.746;9.236;2022-12-20T04:52:51;33.92;;;32.85;;
5929;SDS011;2990;48.746;9.236;2022-12-20T04:55:36;32.17;;;30.98;;
5929;SDS011;2990;48.746;9.236;2022-12-20T04:58:04;31.88;;;30.83;;
5929;SDS011;2990;48.746;9.236;2022-12-20T05:00:31;34.78;;;33.63;;
5929;SDS011;2990;48.746;9.236;2022-12-20T05:02:57;34.10;;;32.92;;
5929;SDS011;2990;48.746;9.236;2022-12-20T05:05:23;43.03;;;41.47;;
5929;SDS011;2990;48.746;9.236;2022-12-20T05:07:50;30.85;;;29.88;;
5929;SDS011;2990;48.746;9.236;2022-12-20T05:10:16;24.50;;;23.88;;
5929;SDS011;2990;48.746;9.236;2022-12-20T05:12:42;26.08;;;25.33;;
5929;SDS011;2990;48.746;9.236;2022-12-20T05:15:08;30.45;;;29.55;;
5929;SDS011;2990;48.746;9.236;2022-12-20T05:17:35;23.98;;;23.38;;
5929;SDS011;2990;48.746;9.236;2022-12-20T05:20:00;26.17;;;25.33;;
5929;SDS011;2990;48.746;9.236;2022-12-20T05:22:26;23.67;;;23.13;;
5929;SDS011;2990;48.746;9.236;2022-12-20T05:25:11;18.92;;;18.55;;
5929;SDS011;2990;48.746;9.236;2022-12-20T05:27:55;23.15;;;22.60;;
5929;SDS011;2990;48.746;9.236;2022-12-20T05:30:21;19.30;;;18.92;;
5929;SDS011;2990;48.746;9.236;2022-12-20T05:32:47;23.20;;;22.65;;
5929;SDS011;2990;48.746;9.236;2022-12-20T05:35:13;25.15;;;24.48;;
5929;SDS011;2990;48.746;9.236;2022-12-20T05:37:38;20.63;;;20.20;;
5929;SDS011;2990;48.746;9.236;2022-12-20T05:40:04;23.63;;;23.02;;
5929;SDS011;2990;48.746;9.236;2022-12-20T05:42:30;24.98;;;24.35;;
5929;SDS011;2990;48.746;9.236;2022-12-20T05:44:56;25.60;;;24.95;;
5929;SDS011;2990;48.746;9.236;2022-12-20T05:47:22;27.23;;;26.45;;
5929;SDS011;2990;48.746;9.236;2022-12-20T05:49:48;29.20;;;28.30;;
5929;SDS011;2990;48.746;9.236;2022-12-20T05:52:14;27.58;;;26.80;;
5929;SDS011;2990;48.746;9.236;2022-12-20T05:54:39;25.63;;;24.90;;
5929;SDS011;2990;48.746;9.236;2022-12-20T05:57:05;36.10;;;34.85;;
5929;SDS011;2990;48.746;9.236;2022-12-20T05:59:30;27.48;;;26.63;;
5929;SDS011;2990;48.746;9.236;2022-12-20T06:01:56;31.10;;;30.15;;
5929;SDS011;2990;48.746;9.236;2022-12-20T06:04:21;29.05;;;28.17;;
5929;SDS011;2990;48.746;9.236;2022-12-20T06:06:47;27.40;;;26.58;;
5929;SDS011;2990;48.746;9.236;2022-12-20T06:09:13;26.27;;;25.52;;
5929;SDS011;2990;48.746;9.236;2022-12-20T06:11:38;28.88;;;28.00;;
5929;SDS011;2990;48.746;9.236;2022-12-20T06:14:04;27.45;;;26.58;;
5929;SDS011;2990;48.746;9.236;2022-12-20T06:16:29;30.20;;;29.30;;
5929;SDS011;2990;48.746;9.236;2022-12-20T06:18:55;21.27;;;20.80;;
5929;SDS011;2990;48.746;9.236;2022-12-20T06:21:22;19.15;;;18.55;;
5929;SDS011;2990;48.746;9.236;2022-12-20T06:23:47;16.90;;;16.50;;
5929;SDS011;2990;48.746;9.236;2022-12-20T06:26:13;19.10;;;18.75;;
5929;SDS011;2990;48.746;9.236;2022-12-20T06:28:38;20.25;;;19.75;;
5929;SDS011;2990;48.746;9.236;2022-12-20T06:31:07;18.10;;;17.80;;
5929;SDS011;2990;48.746;9.236;2022-12-20T06:33:34;19.27;;;18.90;;
5929;SDS011;2990;48.746;9.236;2022-12-20T06:36:00;18.50;;;18.20;;
5929;SDS011;2990;48.746;9.236;2022-12-20T06:38:26;17.30;;;17.02;;
5929;SDS011;2990;48.746;9.236;2022-12-20T06:40:51;17.85;;;17.52;;
5929;SDS011;2990;48.746;9.236;2022-12-20T06:43:17;17.33;;;16.92;;
5929;SDS011;2990;48.746;9.236;2022-12-20T06:45:42;17.40;;;17.05;;
5929;SDS011;2990;48.746;9.236;2022-12-20T06:48:08;19.20;;;18.80;;
5929;SDS011;2990;48.746;9.236;2022-12-20T06:50:34;23.35;;;22.75;;
5929;SDS011;2990;48.746;9.236;2022-12-20T06:52:59;22.73;;;22.13;;
5929;SDS011;2990;48.746;9.236;2022-12-20T06:55:25;18.75;;;18.30;;
5929;SDS011;2990;48.746;9.236;2022-12-20T06:57:50;19.60;;;19.20;;
5929;SDS011;2990;48.746;9.236;2022-12-20T07:00:16;21.15;;;20.63;;
5929;SDS011;2990;48.746;9.236;2022-12-20T07:02:42;20.13;;;19.65;;
5929;SDS011;2990;48.746;9.236;2022-12-20T07:05:09;22.85;;;22.33;;
5929;SDS011;2990;48.746;9.236;2022-12-20T07:07:35;19.92;;;19.52;;
5929;SDS011;2990;48.746;9.236;2022-12-20T07:10:00;20.77;;;20.33;;
5929;SDS011;2990;48.746;9.236;2022-12-20T07:12:26;22.80;;;22.25;;
5929;SDS011;2990;48.746;9.236;2022-12-20T07:14:51;18.70;;;18.27;;
5929;SDS011;2990;48.746;9.236;2022-12-20T07:17:17;24.00;;;23.35;;
5929;SDS011;2990;48.746;9.236;2022-12-20T07:19:42;21.55;;;21.05;;
5929;SDS011;2990;48.746;9.236;2022-12-20T07:22:08;21.83;;;21.33;;
5929;SDS011;2990;48.746;9.236;2022-12-20T07:24:33;23.25;;;22.67;;
5929;SDS011;2990;48.746;9.236;2022-12-20T07:26:59;22.88;;;22.35;;
5929;SDS011;2990;48.746;9.236;2022-12-20T07:29:25;22.17;;;21.67;;
5929;SDS011;2990;48.746;9.236;2022-12-20T07:31:51;23.23;;;22.60;;
5929;SDS011;2990;48.746;9.236;2022-12-20T07:34:17;25.95;;;25.15;;
5929;SDS011;2990;48.746;9.236;2022-12-20T07:36:42;20.08;;;19.63;;
5929;SDS011;2990;48.746;9.236;2022-12-20T07:39:08;26.88;;;26.13;;
5929;SDS011;2990;48.746;9.236;2022-12-20T07:41:34;27.13;;;26.38;;
5929;SDS011;2990;48.746;9.236;2022-12-20T07:43:59;22.48;;;21.92;;
5929;SDS011;2990;48.746;9.236;2022-12-20T07:46:25;31.30;;;30.30;;
5929;SDS011;2990;48.746;9.236;2022-12-20T07:48:51;27.58;;;26.77;;
5929;SDS011;2990;48.746;9.236;2022-12-20T07:51:18;27.55;;;26.63;;
5929;SDS011;2990;48.746;9.236;2022-12-20T07:53:49;26.90;;;26.17;;
5929;SDS011;2990;48.746;9.236;2022-12-20T07:56:21;29.05;;;28.20;;
5929;SDS011;2990;48.746;9.236;2022-12-20T07:58:47;29.58;;;28.70;;
5929;SDS011;2990;48.746;9.236;2022-12-20T08:01:15;30.70;;;29.70;;
5929;SDS011;2990;48.746;9.236;2022-12-20T08:03:43;25.35;;;24.67;;
5929;SDS011;2990;48.746;9.236;2022-12-20T08:06:12;27.98;;;27.20;;
5929;SDS011;2990;48.746;9.236;2022-12-20T08:08:39;33.33;;;32.10;;
5929;SDS011;2990;48.746;9.236;2022-12-20T08:11:08;30.38;;;29.42;;
5929;SDS011;2990;48.746;9.236;2022-12-20T08:13:34;28.75;;;27.85;;
5929;SDS011;2990;48.746;9.236;2022-12-20T08:16:00;32.80;;;31.73;;
5929;SDS011;2990;48.746;9.236;2022-12-20T08:18:26;30.08;;;29.08;;
5929;SDS011;2990;48.746;9.236;2022-12-20T08:20:51;35.60;;;34.28;;
5929;SDS011;2990;48.746;9.236;2022-12-20T08:23:17;29.98;;;29.05;;
5929;SDS011;2990;48.746;9.236;2022-12-20T08:25:43;35.85;;;34.58;;
5929;SDS011;2990;48.746;9.236;2022-12-20T08:28:09;35.47;;;34.15;;
5929;SDS011;2990;48.746;9.236;2022-12-20T08:30:35;37.95;;;36.58;;
5929;SDS011;2990;48.746;9.236;2022-12-20T08:33:00;37.83;;;36.47;;
5929;SDS011;2990;48.746;9.236;2022-12-20T08:35:26;33.95;;;32.83;;
5929;SDS011;2990;48.746;9.236;2022-12-20T08:37:51;41.60;;;40.00;;
5929;SDS011;2990;48.746;9.236;2022-12-20T08:40:17;37.97;;;36.63;;
5929;SDS011;2990;48.746;9.236;2022-12-20T08:42:43;42.65;;;41.03;;
5929;SDS011;2990;48.746;9.236;2022-12-20T08:45:09;44.88;;;43.20;;
5929;SDS011;2990;48.746;9.236;2022-12-20T08:47:35;44.42;;;42.72;;
5929;SDS011;2990;48.746;9.236;2022-12-20T08:50:00;40.22;;;38.70;;
5929;SDS011;2990;48.746;9.236;2022-12-20T08:52:27;30.92;;;29.92;;
5929;SDS011;2990;48.746;9.236;2022-12-20T08:54:53;43.05;;;41.42;;
5929;SDS011;2990;48.746;9.236;2022-12-20T08:57:19;39.72;;;38.28;;
5929;SDS011;2990;48.746;9.236;2022-12-20T08:59:44;43.63;;;41.88;;
5929;SDS011;2990;48.746;9.236;2022-12-20T09:02:10;43.85;;;42.22;;
5929;SDS011;2990;48.746;9.236;2022-12-20T09:04:35;52.35;;;50.17;;
5929;SDS011;2990;48.746;9.236;2022-12-20T09:07:01;54.13;;;51.95;;
5929;SDS011;2990;48.746;9.236;2022-12-20T09:09:26;51.28;;;49.30;;
5929;SDS011;2990;48.746;9.236;2022-12-20T09:11:52;55.78;;;53.53;;
5929;SDS011;2990;48.746;9.236;2022-12-20T09:14:18;59.78;;;57.35;;
5929;SDS011;2990;48.746;9.236;2022-12-20T09:16:43;79.93;;;76.47;;
5929;SDS011;2990;48.746;9.236;2022-12-20T09:19:09;53.65;;;51.53;;
5929;SDS011;2990;48.746;9.236;2022-12-20T09:21:36;64.15;;;61.53;;
5929;SDS011;2990;48.746;9.236;2022-12-20T09:24:02;55.83;;;53.55;;
5929;SDS011;2990;48.746;9.236;2022-12-20T09:26:28;52.20;;;50.15;;
5929;SDS011;2990;48.746;9.236;2022-12-20T09:28:54;52.58;;;50.28;;
5929;SDS011;2990;48.746;9.236;2022-12-20T09:31:21;53.22;;;51.08;;
5929;SDS011;2990;48.746;9.236;2022-12-20T09:33:48;52.05;;;50.00;;
5929;SDS011;2990;48.746;9.236;2022-12-20T09:36:16;52.47;;;50.33;;
5929;SDS011;2990;48.746;9.236;2022-12-20T09:38:43;52.67;;;50.63;;
5929;SDS011;2990;48.746;9.236;2022-12-20T09:41:31;48.65;;;46.78;;
5929;SDS011;2990;48.746;9.236;2022-12-20T09:43:59;45.20;;;43.53;;
5929;SDS011;2990;48.746;9.236;2022-12-20T09:46:34;42.55;;;40.85;;
5929;SDS011;2990;48.746;9.236;2022-12-20T09:49:00;45.65;;;43.78;;
5929;SDS011;2990;48.746;9.236;2022-12-20T09:56:31;51.97;;;49.95;;
5929;SDS011;2990;48.746;9.236;2022-12-20T09:59:01;74.38;;;71.32;;
5929;SDS011;2990;48.746;9.236;2022-12-20T10:01:35;76.28;;;73.00;;
5929;SDS011;2990;48.746;9.236;2022-12-20T10:04:19;63.58;;;60.92;;
5929;SDS011;2990;48.746;9.236;2022-12-20T10:10:06;71.78;;;68.72;;
5929;SDS011;2990;48.746;9.236;2022-12-20T10:15:20;98.88;;;94.63;;
5929;SDS011;2990;48.746;9.236;2022-12-20T10:21:20;98.25;;;94.05;;
5929;SDS011;2990;48.746;9.236;2022-12-20T10:24:18;114.05;;;109.15;;
5929;SDS011;2990;48.746;9.236;2022-12-20T10:26:49;123.57;;;118.28;;
5929;SDS011;2990;48.746;9.236;2022-12-20T10:29:15;131.02;;;125.28;;
5929;SDS011;2990;48.746;9.236;2022-12-20T10:31:41;147.88;;;141.25;;
5929;SDS011;2990;48.746;9.236;2022-12-20T10:34:07;151.57;;;144.88;;
5929;SDS011;2990;48.746;9.236;2022-12-20T10:36:33;164.43;;;157.00;;
5929;SDS011;2990;48.746;9.236;2022-12-20T10:39:04;142.18;;;135.88;;
5929;SDS011;2990;48.746;9.236;2022-12-20T10:41:33;138.73;;;132.63;;
5929;SDS011;2990;48.746;9.236;2022-12-20T10:44:23;172.38;;;164.45;;
5929;SDS011;2990;48.746;9.236;2022-12-20T10:52:15;172.27;;;164.43;;
5929;SDS011;2990;48.746;9.236;2022-12-20T10:54:43;172.02;;;164.07;;
5929;SDS011;2990;48.746;9.236;2022-12-20T10:57:17;206.45;;;196.68;;
5929;SDS011;2990;48.746;9.236;2022-12-20T10:59:49;187.93;;;179.35;;
5929;SDS011;2990;48.746;9.236;2022-12-20T11:05:01;138.20;;;132.02;;
5929;SDS011;2990;48.746;9.236;2022-12-20T11:07:37;152.93;;;146.20;;
5929;SDS011;2990;48.746;9.236;2022-12-20T11:10:20;155.13;;;148.13;;
5929;SDS011;2990;48.746;9.236;2022-12-20T11:15:20;188.85;;;180.20;;
5929;SDS011;2990;48.746;9.236;2022-12-20T11:17:50;170.82;;;163.00;;
5929;SDS011;2990;48.746;9.236;2022-12-20T11:25:55;179.10;;;170.88;;
5929;SDS011;2990;48.746;9.236;2022-12-20T11:28:44;189.60;;;180.82;;
5929;SDS011;2990;48.746;9.236;2022-12-20T11:34:57;182.90;;;174.57;;
5929;SDS011;2990;48.746;9.236;2022-12-20T11:37:20;188.13;;;179.48;;
5929;SDS011;2990;48.746;9.236;2022-12-20T11:39:58;197.98;;;188.73;;
5929;SDS011;2990;48.746;9.236;2022-12-20T11:48:19;192.38;;;183.38;;
5929;SDS011;2990;48.746;9.236;2022-12-20T11:53:55;214.32;;;204.23;;
5929;SDS011;2990;48.746;9.236;2022-12-20T11:56:29;219.00;;;208.73;;
5929;SDS011;2990;48.746;9.236;2022-12-20T12:02:01;192.68;;;183.75;;
5929;SDS011;2990;48.746;9.236;2022-12-20T12:04:47;176.63;;;168.43;;
5929;SDS011;2990;48.746;9.236;2022-12-20T12:07:24;158.70;;;151.50;;
5929;SDS011;2990;48.746;9.236;2022-12-20T12:12:45;166.70;;;159.25;;
5929;SDS011;2990;48.746;9.236;2022-12-20T12:18:02;182.10;;;173.60;;
5929;SDS011;2990;48.746;9.236;2022-12-20T12:23:05;164.63;;;157.13;;
5929;SDS011;2990;48.746;9.236;2022-12-20T12:25:38;142.90;;;136.55;;
5929;SDS011;2990;48.746;9.236;2022-12-20T12:28:03;166.45;;;158.82;;
5929;SDS011;2990;48.746;9.236;2022-12-20T12:30:34;174.07;;;166.13;;
5929;SDS011;2990;48.746;9.236;2022-12-20T12:33:04;156.73;;;149.63;;
5929;SDS011;2990;48.746;9.236;2022-12-20T12:38:35;126.97;;;121.32;;
5929;SDS011;2990;48.746;9.236;2022-12-20T12:41:22;139.38;;;133.25;;
5929;SDS011;2990;48.746;9.236;2022-12-20T12:44:54;135.90;;;129.77;;
5929;SDS011;2990;48.746;9.236;2022-12-20T12:47:20;130.07;;;124.35;;
5929;SDS011;2990;48.746;9.236;2022-12-20T12:49:49;109.57;;;104.85;;
5929;SDS011;2990;48.746;9.236;2022-12-20T12:52:27;136.35;;;130.40;;
5929;SDS011;2990;48.746;9.236;2022-12-20T12:55:29;116.22;;;111.22;;
5929;SDS011;2990;48.746;9.236;2022-12-20T12:58:07;110.65;;;105.88;;
5929;SDS011;2990;48.746;9.236;2022-12-20T13:03:34;134.50;;;128.65;;
5929;SDS011;2990;48.746;9.236;2022-12-20T13:11:54;121.82;;;116.55;;
5929;SDS011;2990;48.746;9.236;2022-12-20T13:16:41;118.55;;;113.30;;
5929;SDS011;2990;48.746;9.236;2022-12-20T13:19:10;138.20;;;132.15;;
5929;SDS011;2990;48.746;9.236;2022-12-20T13:21:41;133.15;;;127.35;;
5929;SDS011;2990;48.746;9.236;2022-12-20T13:28:03;130.60;;;124.30;;
5929;SDS011;2990;48.746;9.236;2022-12-20T13:40:47;133.85;;;127.97;;
5929;SDS011;2990;48.746;9.236;2022-12-20T13:45:56;147.82;;;141.35;;
5929;SDS011;2990;48.746;9.236;2022-12-20T13:53:54;136.77;;;130.73;;
5929;SDS011;2990;48.746;9.236;2022-12-20T13:59:12;146.70;;;139.75;;
5929;SDS011;2990;48.746;9.236;2022-12-20T14:01:51;128.93;;;123.32;;
5929;SDS011;2990;48.746;9.236;2022-12-20T14:04:19;128.60;;;122.95;;
5929;SDS011;2990;48.746;9.236;2022-12-20T14:06:51;143.00;;;136.65;;
5929;SDS011;2990;48.746;9.236;2022-12-20T14:09:30;133.60;;;127.75;;
5929;SDS011;2990;48.746;9.236;2022-12-20T14:12:14;113.63;;;108.57;;
5929;SDS011;2990;48.746;9.236;2022-12-20T14:14:45;117.63;;;111.97;;
5929;SDS011;2990;48.746;9.236;2022-12-20T14:22:41;126.07;;;120.55;;
5929;SDS011;2990;48.746;9.236;2022-12-20T14:25:28;136.38;;;130.35;;
5929;SDS011;2990;48.746;9.236;2022-12-20T14:28:24;120.97;;;115.75;;
5929;SDS011;2990;48.746;9.236;2022-12-20T14:30:54;152.95;;;146.15;;
5929;SDS011;2990;48.746;9.236;2022-12-20T14:33:27;129.32;;;123.68;;
5929;SDS011;2990;48.746;9.236;2022-12-20T14:35:57;118.80;;;113.57;;
5929;SDS011;2990;48.746;9.236;2022-12-20T14:38:32;129.75;;;124.00;;
5929;SDS011;2990;48.746;9.236;2022-12-20T14:40:58;134.55;;;128.63;;
5929;SDS011;2990;48.746;9.236;2022-12-20T14:43:28;132.23;;;126.50;;
5929;SDS011;2990;48.746;9.236;2022-12-20T14:48:44;117.05;;;111.82;;
5929;SDS011;2990;48.746;9.236;2022-12-20T14:51:10;118.80;;;113.57;;
5929;SDS011;2990;48.746;9.236;2022-12-20T14:53:38;135.60;;;129.60;;
5929;SDS011;2990;48.746;9.236;2022-12-20T14:56:04;133.82;;;127.93;;
5929;SDS011;2990;48.746;9.236;2022-12-20T14:58:37;148.45;;;141.65;;
5929;SDS011;2990;48.746;9.236;2022-12-20T15:01:17;132.98;;;126.90;;
5929;SDS011;2990;48.746;9.236;2022-12-20T15:03:55;127.63;;;122.00;;
5929;SDS011;2990;48.746;9.236;2022-12-20T15:09:09;121.03;;;115.68;;
5929;SDS011;2990;48.746;9.236;2022-12-20T15:11:35;127.20;;;121.57;;
5929;SDS011;2990;48.746;9.236;2022-12-20T15:14:04;133.38;;;127.47;;
5929;SDS011;2990;48.746;9.236;2022-12-20T15:16:46;123.53;;;118.00;;
5929;SDS011;2990;48.746;9.236;2022-12-20T15:19:13;142.75;;;136.52;;
5929;SDS011;2990;48.746;9.236;2022-12-20T15:21:39;134.43;;;128.57;;
5929;SDS011;2990;48.746;9.236;2022-12-20T15:24:17;136.73;;;130.70;;
5929;SDS011;2990;48.746;9.236;2022-12-20T15:26:46;152.43;;;145.70;;
5929;SDS011;2990;48.746;9.236;2022-12-20T15:29:15;161.77;;;154.57;;
5929;SDS011;2990;48.746;9.236;2022-12-20T15:31:42;128.32;;;122.72;;
5929;SDS011;2990;48.746;9.236;2022-12-20T15:34:43;135.68;;;129.65;;
5929;SDS011;2990;48.746;9.236;2022-12-20T15:37:02;133.10;;;127.13;;
5929;SDS011;2990;48.746;9.236;2022-12-20T15:39:29;147.88;;;141.20;;
5929;SDS011;2990;48.746;9.236;2022-12-20T15:41:55;128.43;;;122.72;;
5929;SDS011;2990;48.746;9.236;2022-12-20T15:44:24;128.13;;;122.60;;
5929;SDS011;2990;48.746;9.236;2022-12-20T15:46:51;125.88;;;120.35;;
5929;SDS011;2990;48.746;9.236;2022-12-20T15:49:21;124.63;;;119.18;;
5929;SDS011;2990;48.746;9.236;2022-12-20T15:51:52;132.05;;;126.22;;
5929;SDS011;2990;48.746;9.236;2022-12-20T15:56:48;126.50;;;120.97;;
5929;SDS011;2990;48.746;9.236;2022-12-20T15:59:13;121.15;;;115.93;;
5929;SDS011;2990;48.746;9.236;2022-12-20T16:01:39;112.80;;;107.93;;
5929;SDS011;2990;48.746;9.236;2022-12-20T16:04:05;121.88;;;116.63;;
5929;SDS011;2990;48.746;9.236;2022-12-20T16:06:31;129.50;;;123.82;;
5929;SDS011;2990;48.746;9.236;2022-12-20T16:08:57;144.70;;;138.38;;
5929;SDS011;2990;48.746;9.236;2022-12-20T16:11:24;136.70;;;130.68;;
5929;SDS011;2990;48.746;9.236;2022-12-20T16:13:54;143.75;;;137.52;;
5929;SDS011;2990;48.746;9.236;2022-12-20T16:16:23;116.38;;;111.20;;
5929;SDS011;2990;48.746;9.236;2022-12-20T16:18:49;135.75;;;129.80;;
5929;SDS011;2990;48.746;9.236;2022-12-20T16:21:18;129.50;;;123.78;;
5929;SDS011;2990;48.746;9.236;2022-12-20T16:23:46;132.18;;;126.43;;
5929;SDS011;2990;48.746;9.236;2022-12-20T16:26:13;158.48;;;151.50;;
5929;SDS011;2990;48.746;9.236;2022-12-20T16:28:40;147.07;;;140.57;;
5929;SDS011;2990;48.746;9.236;2022-12-20T16:31:10;157.90;;;150.88;;
5929;SDS011;2990;48.746;9.236;2022-12-20T16:33:45;145.00;;;138.48;;
5929;SDS011;2990;48.746;9.236;2022-12-20T16:36:11;154.13;;;147.13;;
5929;SDS011;2990;48.746;9.236;2022-12-20T16:38:36;145.75;;;139.02;;
5929;SDS011;2990;48.746;9.236;2022-12-20T16:41:19;148.93;;;142.38;;
5929;SDS011;2990;48.746;9.236;2022-12-20T16:43:49;132.95;;;127.03;;
5929;SDS011;2990;48.746;9.236;2022-12-20T16:46:15;193.52;;;184.32;;
5929;SDS011;2990;48.746;9.236;2022-12-20T16:48:43;142.00;;;135.65;;